Time;durP1;ratioP1;P1;durP2;ratioP2;P2;SDS_P1;SDS_P2;PMS_P1;PMS_P2;Temp;Humidity;BMP_temperature;BMP_pressure;BME280_temperature;BME280_humidity;BME280_pressure;Samples;Min_cycle;Max_cycle;Signal;HPM_P1;HPM_P2
2023/09/03 00:00:41;;;;;;;36.03;23.40;;;17.50;99.90;;;;;;5072038;28;20248;-73
2023/09/03 00:03:07;;;;;;;38.37;24.17;;;17.40;99.90;;;;;;5071618;28;20217;-73
2023/09/03 00:05:33;;;;;;;42.70;25.47;;;17.40;99.90;;;;;;5071785;28;20283;-73
2023/09/03 00:07:59;;;;;;;39.73;25.93;;;17.30;99.90;;;;;;5071899;28;20170;-73
2023/09/03 00:10:25;;;;;;;39.07;24.67;;;17.30;99.90;;;;;;5071748;28;20590;-73
2023/09/03 00:12:50;;;;;;;39.67;24.70;;;17.20;99.90;;;;;;5071510;28;20196;-73
2023/09/03 00:15:23;;;;;;;42.13;26.37;;;17.20;99.90;;;;;;5071701;28;20194;-73
2023/09/03 00:17:49;;;;;;;41.13;26.83;;;17.20;99.90;;;;;;5071992;28;20178;-73
2023/09/03 00:20:15;;;;;;;48.07;27.70;;;17.20;99.90;;;;;;5070776;28;20177;-73
2023/09/03 00:22:41;;;;;;;45.37;25.50;;;17.10;99.90;;;;;;5071344;28;22040;-73
2023/09/03 00:25:07;;;;;;;41.13;26.23;;;17.10;99.90;;;;;;5071615;28;20235;-73
2023/09/03 00:27:33;;;;;;;44.80;26.57;;;17.00;99.90;;;;;;5071473;28;20197;-73
2023/09/03 00:29:59;;;;;;;49.63;28.73;;;17.00;99.90;;;;;;5071651;28;20262;-73
2023/09/03 00:32:24;;;;;;;43.23;27.20;;;17.00;99.90;;;;;;5070615;28;20189;-73
2023/09/03 00:34:50;;;;;;;44.17;27.03;;;16.90;99.90;;;;;;5071469;28;20240;-73
2023/09/03 00:37:16;;;;;;;46.53;27.40;;;16.90;99.90;;;;;;5071311;28;20261;-73
2023/09/03 00:39:41;;;;;;;47.50;27.43;;;16.90;99.90;;;;;;5071530;28;20209;-73
2023/09/03 00:42:07;;;;;;;47.07;28.93;;;16.90;99.90;;;;;;5071008;28;20488;-73
2023/09/03 00:44:33;;;;;;;47.73;28.90;;;16.80;99.90;;;;;;5071235;28;20248;-73
2023/09/03 00:46:58;;;;;;;50.57;29.37;;;16.80;99.90;;;;;;5071457;28;20227;-73
2023/09/03 00:49:25;;;;;;;54.03;31.53;;;16.80;99.90;;;;;;5071109;28;20174;-73
2023/09/03 00:51:53;;;;;;;55.87;31.93;;;16.80;99.90;;;;;;5071133;28;20170;-73
2023/09/03 00:54:22;;;;;;;53.40;32.00;;;16.70;99.90;;;;;;5071410;28;20510;-73
2023/09/03 00:56:49;;;;;;;61.27;34.30;;;16.70;99.90;;;;;;5071293;28;20174;-73
2023/09/03 00:59:18;;;;;;;55.73;31.57;;;16.80;99.90;;;;;;5071005;28;20178;-73
2023/09/03 01:01:43;;;;;;;58.80;32.57;;;16.70;99.90;;;;;;5069644;28;20276;-73
2023/09/03 01:04:10;;;;;;;55.37;32.13;;;16.70;99.90;;;;;;5071021;28;20339;-73
2023/09/03 01:06:36;;;;;;;52.57;31.23;;;16.70;99.90;;;;;;5071304;28;20162;-73
2023/09/03 01:09:02;;;;;;;53.07;31.67;;;16.70;99.90;;;;;;5071474;28;20177;-73
2023/09/03 01:11:41;;;;;;;59.03;31.17;;;16.70;99.90;;;;;;5071005;28;20197;-73
2023/09/03 01:14:15;;;;;;;54.73;31.10;;;16.70;99.90;;;;;;5072857;28;20205;-73
2023/09/03 01:16:57;;;;;;;59.90;31.20;;;16.60;99.90;;;;;;5073050;28;20542;-73
2023/09/03 01:19:54;;;;;;;58.40;30.50;;;16.60;99.90;;;;;;5072798;28;20182;-73
2023/09/03 01:22:22;;;;;;;59.97;31.77;;;16.50;99.90;;;;;;5071862;28;20193;-73
2023/09/03 01:25:21;;;;;;;61.57;31.97;;;16.50;99.90;;;;;;5071986;28;20552;-73
2023/09/03 01:27:57;;;;;;;62.53;34.23;;;16.40;99.90;;;;;;5069952;28;20185;-73
2023/09/03 01:30:23;;;;;;;67.77;32.73;;;16.40;99.90;;;;;;5070189;28;21045;-73
2023/09/03 01:32:50;;;;;;;64.23;33.53;;;16.30;99.90;;;;;;5070708;28;20174;-73
2023/09/03 01:35:18;;;;;;;72.77;35.47;;;16.30;99.90;;;;;;5070733;28;20571;-73
2023/09/03 01:37:44;;;;;;;62.30;31.60;;;16.30;99.90;;;;;;5070960;28;20178;-73
2023/09/03 01:40:10;;;;;;;66.33;35.53;;;16.30;99.90;;;;;;5070842;28;20179;-73
2023/09/03 01:42:35;;;;;;;73.77;33.97;;;16.30;99.90;;;;;;5070382;28;20197;-73
2023/09/03 01:45:02;;;;;;;69.80;35.37;;;16.30;99.90;;;;;;5073354;28;20197;-72
2023/09/03 01:47:38;;;;;;;74.10;36.30;;;16.30;99.90;;;;;;5074324;28;20635;-73
2023/09/03 01:50:42;;;;;;;75.93;35.87;;;16.30;99.90;;;;;;5074611;28;20174;-73
2023/09/03 01:53:36;;;;;;;67.90;35.33;;;16.30;99.90;;;;;;5074111;28;20181;-73
2023/09/03 01:56:04;;;;;;;72.17;35.50;;;16.30;99.90;;;;;;5074460;28;20216;-73
2023/09/03 01:58:34;;;;;;;83.13;36.67;;;16.30;99.90;;;;;;5074290;28;20181;-73
2023/09/03 02:01:02;;;;;;;76.20;35.97;;;16.20;99.90;;;;;;5074397;28;20236;-73
2023/09/03 02:03:29;;;;;;;78.10;35.70;;;16.20;99.90;;;;;;5073683;28;20212;-73
2023/09/03 02:05:55;;;;;;;72.23;35.50;;;16.30;99.90;;;;;;5074207;28;20189;-73
2023/09/03 02:08:21;;;;;;;80.73;37.60;;;16.30;99.90;;;;;;5074070;28;20625;-73
2023/09/03 02:10:46;;;;;;;75.30;37.53;;;16.30;99.90;;;;;;5074117;28;20177;-73
2023/09/03 02:13:12;;;;;;;82.93;38.27;;;16.30;99.90;;;;;;5073652;28;20174;-73
2023/09/03 02:15:37;;;;;;;77.90;36.60;;;16.30;99.90;;;;;;5073860;28;20202;-73
2023/09/03 02:18:03;;;;;;;77.97;38.17;;;16.30;99.90;;;;;;5073978;28;20196;-73
2023/09/03 02:20:29;;;;;;;72.57;37.27;;;16.30;99.90;;;;;;5073859;28;20182;-73
2023/09/03 02:22:54;;;;;;;72.07;36.27;;;16.30;99.90;;;;;;5073509;28;20289;-73
2023/09/03 02:25:20;;;;;;;72.50;35.60;;;16.20;99.90;;;;;;5073897;28;20281;-73
2023/09/03 02:27:46;;;;;;;76.20;36.60;;;16.20;99.90;;;;;;5073975;28;20539;-73
2023/09/03 02:30:12;;;;;;;70.60;35.50;;;16.20;99.90;;;;;;5073890;28;20618;-73
2023/09/03 02:32:37;;;;;;;76.53;35.17;;;16.20;99.90;;;;;;5073655;28;20167;-73
2023/09/03 02:35:03;;;;;;;71.47;37.07;;;16.20;99.90;;;;;;5073875;28;20201;-73
2023/09/03 02:37:29;;;;;;;66.77;34.40;;;16.10;99.90;;;;;;5073554;28;20171;-74
2023/09/03 02:39:54;;;;;;;71.93;34.17;;;16.10;99.90;;;;;;5073819;28;20170;-73
2023/09/03 02:42:20;;;;;;;78.77;36.10;;;16.00;99.90;;;;;;5073138;28;20583;-73
2023/09/03 02:44:46;;;;;;;74.07;34.73;;;15.90;99.90;;;;;;5072369;28;20226;-73
2023/09/03 02:47:12;;;;;;;73.17;35.73;;;15.90;99.90;;;;;;5073576;28;20170;-74
2023/09/03 02:49:38;;;;;;;75.67;37.43;;;15.80;99.90;;;;;;5073559;28;20170;-73
2023/09/03 02:52:04;;;;;;;79.40;36.80;;;15.80;99.90;;;;;;5073219;28;20172;-74
2023/09/03 02:54:29;;;;;;;76.10;35.93;;;15.80;99.90;;;;;;5072856;28;20212;-73
2023/09/03 02:56:55;;;;;;;77.47;36.20;;;15.80;99.90;;;;;;5073455;28;20186;-73
2023/09/03 02:59:20;;;;;;;76.27;34.57;;;15.80;99.90;;;;;;5073286;28;20543;-73
2023/09/03 03:01:46;;;;;;;76.43;35.47;;;15.80;99.90;;;;;;5073020;28;20667;-73
2023/09/03 03:04:12;;;;;;;85.67;36.70;;;15.80;99.90;;;;;;5072996;28;20237;-73
2023/09/03 03:06:37;;;;;;;85.93;37.50;;;15.80;99.90;;;;;;5072005;28;20174;-73
2023/09/03 03:09:04;;;;;;;81.03;36.67;;;15.80;99.90;;;;;;5073208;28;20174;-73
2023/09/03 03:11:30;;;;;;;88.87;37.70;;;15.80;99.90;;;;;;5072648;28;20178;-74
2023/09/03 03:13:55;;;;;;;91.07;39.27;;;15.80;99.90;;;;;;5072978;28;20182;-73
2023/09/03 03:16:21;;;;;;;90.63;38.67;;;15.80;99.90;;;;;;5072898;28;20209;-73
2023/09/03 03:18:47;;;;;;;98.23;40.17;;;15.80;99.90;;;;;;5073064;28;20178;-73
2023/09/03 03:21:19;;;;;;;94.17;39.93;;;15.70;99.90;;;;;;5072798;28;20185;-74
2023/09/03 03:23:48;;;;;;;91.20;39.83;;;15.70;99.90;;;;;;5072715;28;20201;-74
2023/09/03 03:26:15;;;;;;;86.63;38.93;;;15.70;99.90;;;;;;5072794;28;20174;-73
2023/09/03 03:28:40;;;;;;;101.90;40.47;;;15.70;99.90;;;;;;5072828;28;20247;-72
2023/09/03 03:31:10;;;;;;;101.40;42.53;;;15.70;99.90;;;;;;5072742;28;20574;-73
2023/09/03 03:33:39;;;;;;;107.33;47.77;;;15.80;99.90;;;;;;5072378;28;20586;-72
2023/09/03 03:36:06;;;;;;;113.47;45.60;;;15.80;99.90;;;;;;5072492;28;20190;-73
2023/09/03 03:38:32;;;;;;;115.33;46.77;;;15.80;99.90;;;;;;5072509;28;20200;-73
2023/09/03 03:41:07;;;;;;;116.33;48.00;;;15.80;99.90;;;;;;5072572;28;20174;-73
2023/09/03 03:43:34;;;;;;;113.30;44.57;;;15.80;99.90;;;;;;5072047;28;20250;-73
2023/09/03 03:45:59;;;;;;;115.73;45.43;;;15.90;99.90;;;;;;5072363;28;20198;-73
2023/09/03 03:48:25;;;;;;;114.60;45.73;;;15.90;99.90;;;;;;5072224;28;20170;-73
2023/09/03 03:50:56;;;;;;;111.43;44.27;;;15.90;99.90;;;;;;5072410;28;20177;-73
2023/09/03 03:53:22;;;;;;;107.13;44.50;;;15.90;99.90;;;;;;5071783;28;20178;-73
2023/09/03 03:56:14;;;;;;;106.57;43.53;;;15.90;99.90;;;;;;5070959;28;20743;-73
2023/09/03 03:58:42;;;;;;;114.47;44.40;;;15.90;99.90;;;;;;5072290;28;20224;-73
2023/09/03 04:01:15;;;;;;;99.60;42.30;;;15.80;99.90;;;;;;5071975;28;20185;-73
2023/09/03 04:03:41;;;;;;;98.60;43.10;;;15.80;99.90;;;;;;5071893;28;20198;-73
2023/09/03 04:06:07;;;;;;;103.13;41.63;;;15.80;99.90;;;;;;5071351;28;20190;-73
2023/09/03 04:08:35;;;;;;;97.37;40.63;;;15.80;99.90;;;;;;5071658;28;20228;-72
2023/09/03 04:11:06;;;;;;;106.10;42.33;;;15.70;99.90;;;;;;5070728;28;20182;-73
2023/09/03 04:13:32;;;;;;;101.80;41.43;;;15.70;99.90;;;;;;5071488;28;20648;-73
2023/09/03 04:15:59;;;;;;;105.33;43.80;;;15.70;99.90;;;;;;5071939;28;20885;-73
2023/09/03 04:18:26;;;;;;;100.10;43.10;;;15.60;99.90;;;;;;5071774;28;20268;-73
2023/09/03 04:20:53;;;;;;;100.33;41.30;;;15.50;99.90;;;;;;5071065;28;20704;-72
2023/09/03 04:23:18;;;;;;;114.73;44.30;;;15.50;99.90;;;;;;5071348;28;20343;-73
2023/09/03 04:25:44;;;;;;;104.33;42.53;;;15.50;99.90;;;;;;5071616;28;20213;-74
2023/09/03 04:28:10;;;;;;;108.63;43.60;;;15.50;99.90;;;;;;5071114;28;20236;-73
2023/09/03 04:30:37;;;;;;;105.27;44.40;;;15.50;99.90;;;;;;5071907;28;20193;-72
2023/09/03 04:33:04;;;;;;;110.70;44.13;;;15.50;99.90;;;;;;5071497;28;20540;-73
2023/09/03 04:35:30;;;;;;;98.00;40.83;;;15.50;99.90;;;;;;5071458;28;20687;-72
2023/09/03 04:37:55;;;;;;;101.90;41.60;;;15.50;99.90;;;;;;5071650;28;20178;-72
2023/09/03 04:40:21;;;;;;;108.33;43.40;;;15.50;99.90;;;;;;5071480;28;20223;-72
2023/09/03 04:42:47;;;;;;;106.37;42.97;;;15.50;99.90;;;;;;5071207;28;20598;-73
2023/09/03 04:45:12;;;;;;;117.10;45.63;;;15.50;99.90;;;;;;5071315;28;20216;-73
2023/09/03 04:47:38;;;;;;;115.50;45.47;;;15.50;99.90;;;;;;5070959;28;20182;-74
2023/09/03 04:50:04;;;;;;;99.93;42.90;;;15.40;99.90;;;;;;5071600;28;20166;-74
2023/09/03 04:52:30;;;;;;;99.07;41.17;;;15.40;99.90;;;;;;5071012;28;20657;-74
2023/09/03 04:54:55;;;;;;;103.47;42.53;;;15.40;99.90;;;;;;5070412;28;20194;-74
2023/09/03 04:57:21;;;;;;;95.53;40.73;;;15.40;99.90;;;;;;5071906;28;20182;-73
2023/09/03 04:59:46;;;;;;;105.03;41.40;;;15.30;99.90;;;;;;5071675;28;20609;-73
2023/09/03 05:02:12;;;;;;;97.77;41.63;;;15.30;99.90;;;;;;5071199;28;20742;-73
2023/09/03 05:04:38;;;;;;;106.17;43.93;;;15.20;99.90;;;;;;5069951;28;20217;-73
2023/09/03 05:07:05;;;;;;;103.87;43.23;;;15.20;99.90;;;;;;5070124;28;20170;-73
2023/09/03 05:09:31;;;;;;;106.50;42.83;;;15.20;99.90;;;;;;5071164;28;20166;-73
2023/09/03 05:11:56;;;;;;;113.67;44.90;;;15.30;99.90;;;;;;5071039;28;20174;-73
2023/09/03 05:14:22;;;;;;;125.80;45.57;;;15.30;99.90;;;;;;5071070;28;20709;-73
2023/09/03 05:16:48;;;;;;;112.57;46.47;;;15.40;99.90;;;;;;5071346;28;20174;-73
2023/09/03 05:19:14;;;;;;;114.80;44.90;;;15.40;99.90;;;;;;5074157;28;20174;-73
2023/09/03 05:21:43;;;;;;;110.50;43.53;;;15.50;99.90;;;;;;5073746;28;20219;-73
2023/09/03 05:24:12;;;;;;;119.03;45.17;;;15.50;99.90;;;;;;5074894;28;20584;-73
2023/09/03 05:26:38;;;;;;;111.10;42.90;;;15.60;99.90;;;;;;5074701;28;20178;-73
2023/09/03 05:29:04;;;;;;;117.80;46.37;;;15.60;99.90;;;;;;5075209;28;20170;-73
2023/09/03 05:31:30;;;;;;;124.53;46.03;;;15.60;99.90;;;;;;5074651;28;20201;-73
2023/09/03 05:34:00;;;;;;;124.70;45.30;;;15.60;99.90;;;;;;5074904;28;20173;-73
2023/09/03 05:36:25;;;;;;;117.10;45.80;;;15.70;99.90;;;;;;5074884;28;20258;-74
2023/09/03 05:38:51;;;;;;;116.50;46.30;;;15.70;99.90;;;;;;5074959;28;20257;-73
2023/09/03 05:41:17;;;;;;;118.60;45.37;;;15.80;99.90;;;;;;5074357;28;20225;-73
2023/09/03 05:43:42;;;;;;;109.13;45.37;;;15.90;99.90;;;;;;5073780;28;20308;-73
2023/09/03 05:46:08;;;;;;;120.83;47.17;;;16.00;99.90;;;;;;5074543;28;20190;-74
2023/09/03 05:48:33;;;;;;;116.50;45.50;;;16.10;99.90;;;;;;5074455;28;20223;-73
2023/09/03 05:51:03;;;;;;;99.03;43.60;;;16.30;99.90;;;;;;5074543;28;20174;-73
2023/09/03 05:53:33;;;;;;;111.43;42.93;;;16.40;99.90;;;;;;5073983;28;20201;-73
2023/09/03 05:56:05;;;;;;;102.47;41.67;;;16.60;99.90;;;;;;5074429;28;20198;-73
2023/09/03 05:58:32;;;;;;;101.07;41.17;;;16.60;99.90;;;;;;5074304;28;20170;-73
2023/09/03 06:00:57;;;;;;;88.83;40.50;;;16.70;99.90;;;;;;5074384;28;20166;-73
2023/09/03 06:03:23;;;;;;;95.37;43.37;;;16.70;99.90;;;;;;5073835;28;20201;-74
2023/09/03 06:05:48;;;;;;;106.33;40.80;;;16.80;99.90;;;;;;5074092;28;20190;-73
2023/09/03 06:08:14;;;;;;;90.57;38.33;;;16.90;99.90;;;;;;5074385;28;20326;-73
2023/09/03 06:10:41;;;;;;;104.13;41.50;;;16.80;99.90;;;;;;5074382;28;20175;-73
2023/09/03 06:13:07;;;;;;;92.97;41.93;;;16.80;99.90;;;;;;5072550;28;20308;-73
2023/09/03 06:15:32;;;;;;;86.43;39.73;;;16.90;99.90;;;;;;5073996;28;20281;-73
2023/09/03 06:17:59;;;;;;;88.23;39.67;;;17.00;99.90;;;;;;5074124;28;20175;-73
2023/09/03 06:20:25;;;;;;;87.60;41.63;;;17.10;99.90;;;;;;5073899;28;20381;-73
2023/09/03 06:22:51;;;;;;;90.97;40.10;;;17.40;99.90;;;;;;5073657;28;20635;-73
2023/09/03 06:25:18;;;;;;;89.27;40.03;;;17.70;99.90;;;;;;5073893;28;20218;-73
2023/09/03 06:27:44;;;;;;;80.83;39.40;;;17.80;99.90;;;;;;5073864;28;20249;-73
2023/09/03 06:30:10;;;;;;;75.07;36.23;;;17.80;99.90;;;;;;5073105;28;20327;-73
2023/09/03 06:32:36;;;;;;;68.73;35.67;;;18.00;99.90;;;;;;5073502;28;20607;-73
2023/09/03 06:35:03;;;;;;;67.70;36.83;;;18.20;99.90;;;;;;5073728;28;20186;-73
2023/09/03 06:37:29;;;;;;;59.27;35.47;;;18.40;99.90;;;;;;5073509;28;20257;-73
2023/09/03 06:39:55;;;;;;;70.20;35.97;;;18.50;99.90;;;;;;5073690;28;20308;-73
2023/09/03 06:42:21;;;;;;;54.50;31.83;;;18.50;99.90;;;;;;5073253;28;20269;-73
2023/09/03 06:44:46;;;;;;;51.80;32.63;;;18.60;99.90;;;;;;5073516;28;20193;-74
2023/09/03 06:47:12;;;;;;;51.77;32.47;;;18.70;99.90;;;;;;5073752;28;20599;-73
2023/09/03 06:49:38;;;;;;;53.87;32.57;;;19.00;99.90;;;;;;5073363;28;20190;-73
2023/09/03 06:52:03;;;;;;;47.47;29.73;;;19.30;99.90;;;;;;5073222;28;20245;-73
2023/09/03 06:54:29;;;;;;;41.40;29.73;;;19.50;99.90;;;;;;5073328;28;20239;-73
2023/09/03 06:56:55;;;;;;;39.83;26.80;;;19.60;99.90;;;;;;5073552;28;20647;-73
2023/09/03 06:59:23;;;;;;;34.10;25.50;;;19.70;99.90;;;;;;5073272;28;20174;-73
2023/09/03 07:01:50;;;;;;;28.90;22.87;;;19.70;99.90;;;;;;5072876;28;20170;-73
2023/09/03 07:04:15;;;;;;;33.37;24.47;;;19.70;99.90;;;;;;5072871;28;20209;-73
2023/09/03 07:06:41;;;;;;;31.03;22.47;;;19.80;99.90;;;;;;5073401;28;20167;-73
2023/09/03 07:09:06;;;;;;;27.03;21.33;;;19.90;99.90;;;;;;5073199;28;20170;-73
2023/09/03 07:11:32;;;;;;;29.60;22.90;;;19.90;99.90;;;;;;5072984;28;20198;-73
2023/09/03 07:13:58;;;;;;;26.10;20.53;;;20.10;99.90;;;;;;5073084;28;20185;-73
2023/09/03 07:16:23;;;;;;;29.10;21.53;;;20.20;99.90;;;;;;5071589;28;20185;-73
2023/09/03 07:18:49;;;;;;;25.00;20.57;;;20.40;99.90;;;;;;5073264;28;20663;-73
2023/09/03 07:21:15;;;;;;;27.43;21.43;;;20.40;99.90;;;;;;5072009;28;20179;-73
2023/09/03 07:23:40;;;;;;;24.98;20.48;;;20.50;99.90;;;;;;5072591;28;20310;-73
2023/09/03 07:26:08;;;;;;;26.03;20.87;;;20.60;99.90;;;;;;5074795;28;20206;-73
2023/09/03 07:28:34;;;;;;;26.10;20.98;;;20.80;99.90;;;;;;5072657;28;20212;-73
2023/09/03 07:30:59;;;;;;;29.08;20.75;;;21.00;99.90;;;;;;5072917;28;20167;-73
2023/09/03 07:33:25;;;;;;;27.50;20.83;;;21.20;99.90;;;;;;5072187;28;20257;-73
2023/09/03 07:35:51;;;;;;;22.33;18.08;;;21.40;99.90;;;;;;5072346;28;20668;-73
2023/09/03 07:38:17;;;;;;;25.15;19.42;;;21.60;99.90;;;;;;5072443;28;20696;-73
2023/09/03 07:40:43;;;;;;;21.15;17.55;;;21.90;99.90;;;;;;5072222;28;20269;-74
2023/09/03 07:43:09;;;;;;;20.25;16.92;;;22.00;99.90;;;;;;5071973;28;20277;-74
2023/09/03 07:45:34;;;;;;;19.88;17.13;;;22.00;99.90;;;;;;5072158;28;20613;-74
2023/09/03 07:48:00;;;;;;;22.35;17.20;;;22.10;99.90;;;;;;5072270;28;20620;-74
2023/09/03 07:50:28;;;;;;;21.75;17.52;;;22.20;99.90;;;;;;5071974;28;20174;-74
2023/09/03 07:52:53;;;;;;;19.10;15.18;;;22.30;99.90;;;;;;5071934;28;20170;-74
2023/09/03 07:55:19;;;;;;;18.80;16.33;;;22.50;99.90;;;;;;5072051;28;20253;-75
2023/09/03 07:57:45;;;;;;;17.83;15.25;;;22.60;99.90;;;;;;5071954;28;20175;-74
2023/09/03 08:00:11;;;;;;;21.10;16.45;;;22.70;99.90;;;;;;5071966;28;20178;-74
2023/09/03 08:02:36;;;;;;;16.52;14.75;;;22.80;99.90;;;;;;5071606;28;20166;-74
2023/09/03 08:05:02;;;;;;;17.23;15.40;;;22.90;99.90;;;;;;5071805;28;20220;-73
2023/09/03 08:07:27;;;;;;;16.13;14.38;;;23.10;99.90;;;;;;5071864;28;20178;-74
2023/09/03 08:09:54;;;;;;;17.35;14.88;;;23.20;99.90;;;;;;5071721;28;20174;-73
2023/09/03 08:12:20;;;;;;;15.77;12.77;;;23.40;99.90;;;;;;5071371;28;20215;-73
2023/09/03 08:14:48;;;;;;;15.80;13.98;;;23.50;99.90;;;;;;5071805;28;20195;-74
2023/09/03 08:17:14;;;;;;;16.85;15.13;;;23.90;99.90;;;;;;5071681;28;20291;-73
2023/09/03 08:19:40;;;;;;;15.13;13.43;;;24.10;99.90;;;;;;5071686;28;20204;-74
2023/09/03 08:22:05;;;;;;;16.25;12.30;;;24.40;99.90;;;;;;5070718;28;20174;-74
2023/09/03 08:24:31;;;;;;;13.93;12.48;;;25.10;99.90;;;;;;5071631;28;20213;-74
2023/09/03 08:26:58;;;;;;;17.05;15.45;;;25.60;99.90;;;;;;5071702;28;20180;-74
2023/09/03 08:29:24;;;;;;;15.35;13.88;;;25.90;99.90;;;;;;5071607;28;20170;-74
2023/09/03 08:31:50;;;;;;;14.38;12.63;;;26.40;99.90;;;;;;5071274;28;20173;-73
2023/09/03 08:34:16;;;;;;;15.18;11.82;;;26.90;99.90;;;;;;5071511;28;20190;-74
2023/09/03 08:36:41;;;;;;;14.10;12.70;;;27.50;99.90;;;;;;5071422;28;20202;-73
2023/09/03 08:39:07;;;;;;;15.00;12.55;;;27.90;99.90;;;;;;5071327;28;20639;-73
2023/09/03 08:41:36;;;;;;;13.38;11.98;;;28.20;99.90;;;;;;5071049;28;20732;-74
2023/09/03 08:44:14;;;;;;;21.02;15.80;;;28.30;99.90;;;;;;5071227;28;20576;-74
2023/09/03 08:46:44;;;;;;;15.93;14.23;;;28.40;99.90;;;;;;5071466;28;20543;-74
2023/09/03 08:49:12;;;;;;;18.83;15.32;;;28.50;99.90;;;;;;5071575;28;20174;-73
2023/09/03 08:51:38;;;;;;;17.52;15.32;;;28.60;99.90;;;;;;5071198;28;20173;-74
2023/09/03 08:54:05;;;;;;;19.65;17.15;;;28.50;99.90;;;;;;5070652;28;20174;-74
2023/09/03 08:56:33;;;;;;;20.73;16.13;;;28.40;99.90;;;;;;5071170;28;20174;-75
2023/09/03 08:58:59;;;;;;;18.30;14.77;;;28.50;99.90;;;;;;5071299;28;20378;-74
2023/09/03 09:01:26;;;;;;;18.58;15.40;;;28.90;99.90;;;;;;5070852;28;20200;-74
2023/09/03 09:03:54;;;;;;;18.67;14.63;;;29.10;99.90;;;;;;5070798;28;20229;-74
2023/09/03 09:06:20;;;;;;;15.95;14.25;;;29.30;99.90;;;;;;5071072;28;20164;-75
2023/09/03 09:08:47;;;;;;;20.02;16.30;;;29.40;99.90;;;;;;5071198;28;20170;-74
2023/09/03 09:11:17;;;;;;;18.55;15.35;;;29.30;99.90;;;;;;5071086;28;20216;-73
2023/09/03 09:13:55;;;;;;;16.15;14.45;;;29.50;99.90;;;;;;5070939;28;20174;-74
2023/09/03 09:16:21;;;;;;;17.08;15.23;;;29.70;99.90;;;;;;5071083;28;20250;-74
2023/09/03 09:18:47;;;;;;;17.30;13.85;;;30.00;99.90;;;;;;5071083;28;20258;-74
2023/09/03 09:21:12;;;;;;;17.40;13.15;;;30.10;99.90;;;;;;5070320;28;20228;-74
2023/09/03 09:23:38;;;;;;;14.27;12.50;;;30.30;99.90;;;;;;5070686;28;20202;-75
2023/09/03 09:26:29;;;;;;;18.77;16.95;;;30.60;99.90;;;;;;5070825;28;20190;-74
2023/09/03 09:29:02;;;;;;;13.48;12.07;;;30.80;99.90;;;;;;5070933;28;20580;-74
2023/09/03 09:31:32;;;;;;;13.02;11.65;;;31.30;99.90;;;;;;5070671;28;20162;-74
2023/09/03 09:34:08;;;;;;;14.52;12.57;;;31.30;99.90;;;;;;5070622;28;20538;-74
2023/09/03 09:36:33;;;;;;;13.35;11.90;;;31.10;99.90;;;;;;5070945;28;20178;-74
2023/09/03 09:39:08;;;;;;;15.20;12.75;;;30.80;99.90;;;;;;5070933;28;20189;-74
2023/09/03 09:41:40;;;;;;;15.32;10.82;;;30.60;99.90;;;;;;5070572;28;20808;-74
2023/09/03 09:44:11;;;;;;;14.93;12.63;;;30.30;99.90;;;;;;5070653;28;20201;-74
2023/09/03 09:46:38;;;;;;;14.00;12.65;;;30.20;99.90;;;;;;5070607;28;20173;-75
2023/09/03 09:49:04;;;;;;;14.63;12.55;;;30.30;99.90;;;;;;5070868;28;20171;-74
2023/09/03 09:51:31;;;;;;;13.18;11.73;;;30.50;99.90;;;;;;5070383;28;20171;-73
2023/09/03 09:53:58;;;;;;;13.73;12.43;;;30.60;99.90;;;;;;5070373;28;20544;-74
2023/09/03 09:56:34;;;;;;;12.82;11.70;;;30.70;99.90;;;;;;5070577;28;20266;-74
2023/09/03 09:59:00;;;;;;;11.73;10.55;;;30.60;99.90;;;;;;5070716;28;20244;-74
2023/09/03 10:01:40;;;;;;;10.57;9.20;;;30.60;99.90;;;;;;5070295;28;20281;-74
2023/09/03 10:04:06;;;;;;;11.77;10.48;;;30.70;99.90;;;;;;5070474;28;20216;-75
2023/09/03 10:06:32;;;;;;;13.00;11.77;;;30.70;99.90;;;;;;5073766;28;20177;-74
2023/09/03 10:08:58;;;;;;;14.30;12.90;;;30.30;99.90;;;;;;5074227;28;20212;-74
2023/09/03 10:11:24;;;;;;;12.70;11.70;;;30.10;99.90;;;;;;5073793;28;20166;-74
2023/09/03 10:13:50;;;;;;;13.35;12.05;;;30.10;99.90;;;;;;5073752;28;20194;-75
2023/09/03 10:16:19;;;;;;;11.82;10.82;;;30.10;99.90;;;;;;5073918;28;20649;-74
2023/09/03 10:18:49;;;;;;;12.60;11.48;;;30.20;99.90;;;;;;5074136;28;20174;-74
2023/09/03 10:21:21;;;;;;;11.73;10.73;;;30.00;99.90;;;;;;5073249;28;20170;-74
2023/09/03 10:23:51;;;;;;;10.65;9.65;;;29.90;99.90;;;;;;5073906;28;20821;-74
2023/09/03 10:26:33;;;;;;;11.27;9.50;;;29.70;99.90;;;;;;5073695;28;20257;-74
2023/09/03 10:29:07;;;;;;;9.38;7.88;;;29.60;99.90;;;;;;5073894;28;20204;-74
2023/09/03 10:31:35;;;;;;;6.80;6.07;;;29.50;99.90;;;;;;5073271;28;20174;-74
2023/09/03 10:34:01;;;;;;;7.30;6.68;;;29.30;99.90;;;;;;5073458;28;20248;-74
2023/09/03 10:36:27;;;;;;;8.25;7.55;;;28.90;99.90;;;;;;5073772;28;20209;-74
2023/09/03 10:38:52;;;;;;;6.75;6.15;;;28.70;99.90;;;;;;5073715;28;20211;-75
2023/09/03 10:41:23;;;;;;;7.38;6.68;;;28.60;99.90;;;;;;5073132;28;20659;-74
2023/09/03 10:43:54;;;;;;;7.60;6.45;;;28.40;99.90;;;;;;5073270;28;20231;-73
2023/09/03 10:46:25;;;;;;;6.57;5.90;;;28.20;99.90;;;;;;5073403;28;20249;-74
2023/09/03 10:48:55;;;;;;;5.95;5.38;;;28.10;99.90;;;;;;5073550;28;20162;-73
2023/09/03 10:51:35;;;;;;;5.22;4.72;;;28.10;99.90;;;;;;5073069;28;20167;-74
2023/09/03 10:54:17;;;;;;;5.47;4.97;;;28.10;99.90;;;;;;5073143;28;20174;-75
2023/09/03 10:57:05;;;;;;;5.30;4.85;;;28.10;99.90;;;;;;5073859;28;20178;-73
2023/09/03 11:00:07;;;;;;;4.25;3.95;;;27.90;99.90;;;;;;5073211;28;20598;-74
2023/09/03 11:02:34;;;;;;;5.20;4.32;;;27.90;99.90;;;;;;4991108;28;20683;-74
2023/09/03 11:05:09;;;;;;;6.05;5.18;;;27.90;99.90;;;;;;5057764;28;20228;-74
2023/09/03 11:07:35;;;;;;;5.53;5.03;;;27.80;99.90;;;;;;5073082;28;20248;-74
2023/09/03 11:10:19;;;;;;;6.80;4.68;;;27.80;99.90;;;;;;5071658;28;20634;-74
2023/09/03 11:12:46;;;;;;;5.70;4.93;;;27.70;99.90;;;;;;5072696;28;20667;-75
2023/09/03 11:15:12;;;;;;;5.75;5.32;;;27.90;99.90;;;;;;5072733;28;20269;-74
2023/09/03 11:17:38;;;;;;;6.25;3.90;;;28.00;99.90;;;;;;5072607;28;20261;-74
2023/09/03 11:20:04;;;;;;;4.22;3.92;;;27.70;99.90;;;;;;5072755;28;20461;-74
2023/09/03 11:22:36;;;;;;;5.93;4.20;;;27.70;99.90;;;;;;5071760;28;20181;-74
2023/09/03 11:25:02;;;;;;;4.45;3.95;;;27.90;99.90;;;;;;5072671;28;20202;-74
2023/09/03 11:27:28;;;;;;;4.57;4.07;;;28.10;99.90;;;;;;5072639;28;20174;-74
2023/09/03 11:30:06;;;;;;;3.83;3.53;;;28.40;99.90;;;;;;5072446;28;20185;-74
2023/09/03 11:32:36;;;;;;;5.07;4.72;;;28.60;99.90;;;;;;5072223;28;20223;-75
2023/09/03 11:35:02;;;;;;;5.25;4.95;;;28.70;99.90;;;;;;5071412;28;20684;-74
2023/09/03 11:37:27;;;;;;;5.65;5.28;;;28.70;99.90;;;;;;5072327;28;20215;-75
2023/09/03 11:39:53;;;;;;;6.35;6.05;;;28.90;99.90;;;;;;5072423;28;20170;-74
2023/09/03 11:42:19;;;;;;;8.70;8.20;;;29.10;99.90;;;;;;5071779;28;20186;-74
2023/09/03 11:44:50;;;;;;;11.23;10.68;;;29.30;99.90;;;;;;5072143;28;20279;-75
2023/09/03 11:47:16;;;;;;;9.02;8.57;;;29.40;99.90;;;;;;5072144;28;20177;-75
2023/09/03 11:49:45;;;;;;;10.48;9.88;;;29.30;99.90;;;;;;5072396;28;20549;-73
2023/09/03 11:52:12;;;;;;;7.15;6.75;;;29.10;99.90;;;;;;5071730;28;20247;-74
2023/09/03 11:54:37;;;;;;;6.85;6.45;;;28.80;99.90;;;;;;5072361;28;20201;-75
2023/09/03 11:57:04;;;;;;;6.30;5.90;;;28.70;99.90;;;;;;5072331;28;20170;-74
2023/09/03 11:59:30;;;;;;;5.82;5.43;;;28.50;99.90;;;;;;5071937;28;20179;-74
2023/09/03 12:01:56;;;;;;;4.90;4.50;;;28.70;99.90;;;;;;5071493;28;20691;-74
2023/09/03 12:04:22;;;;;;;4.97;4.65;;;28.70;99.90;;;;;;5071725;28;20205;-74
2023/09/03 12:06:48;;;;;;;6.25;5.85;;;28.70;99.90;;;;;;5071964;28;20254;-75
2023/09/03 12:09:14;;;;;;;10.10;9.60;;;28.90;99.90;;;;;;5071815;28;20181;-74
2023/09/03 12:11:39;;;;;;;5.70;5.40;;;29.20;99.90;;;;;;5071665;28;20532;-74
2023/09/03 12:14:09;;;;;;;8.35;7.85;;;29.40;99.90;;;;;;5071536;28;20168;-74
2023/09/03 12:16:48;;;;;;;8.60;8.10;;;29.70;99.90;;;;;;5071672;28;20167;-74
2023/09/03 12:19:14;;;;;;;6.78;6.30;;;29.90;99.90;;;;;;5071607;28;20162;-74
2023/09/03 12:21:39;;;;;;;5.13;4.72;;;30.00;99.90;;;;;;5070478;28;20182;-75
2023/09/03 12:24:07;;;;;;;7.72;7.22;;;30.00;99.90;;;;;;5071264;28;20202;-75
2023/09/03 12:26:36;;;;;;;7.43;6.93;;;29.90;99.90;;;;;;5071826;28;20690;-74
2023/09/03 12:29:21;;;;;;;7.35;6.85;;;29.90;99.90;;;;;;5070893;28;20206;-74
2023/09/03 12:31:47;;;;;;;12.13;11.45;;;29.70;99.90;;;;;;5071125;28;20166;-74